VTBD/DMK METAR and TAF weather

Enter ICAO airport designator
Station Type Date Time Source
VTBD METAR 2019/12/14 11:00 UTC NOAA

VTBD 141100Z 13005KT 9999 FEW040 30/19 Q1012 NOSIG


Station Type Date Time Source
VTBD Decoded METAR 2019/12/14 11:00 UTC NOAA

Don Muang, Thailand (VTBD) 13-55N 100-36E 12M
Dec 14, 2019 - 06:00 AM EST / 2019.12.14 1100 UTC
Wind: from the SE (130 degrees) at 6 MPH (5 KT):0
Visibility: greater than 7 mile(s):0
Sky conditions: mostly clear
Temperature: 86 F (30 C)
Dew Point: 66 F (19 C)
Relative Humidity: 51%
Pressure (altimeter): 29.88 in. Hg (1012 hPa)
ob: VTBD 141100Z 13005KT 9999 FEW040 30/19 Q1012 NOSIG
cycle: 11

Station Type Date Time Source
VTBD TAF 2019/12/14 06:36 UTC NOAA

TAF TAF VTBD 140500Z 1406/1512 07008KT 9000 NSC
BECMG 1420/1422 35005KT
BECMG 1500/1502 07008KT

Example: see airport list